createdAt,value
2017-03-15T00:00:49.263Z,970.26
2017-03-15T00:01:58.927Z,970.18
2017-03-15T00:03:09.195Z,970.23
2017-03-15T00:04:19.459Z,970.13
2017-03-15T00:05:31.728Z,970.18
2017-03-15T00:06:41.998Z,970.16
2017-03-15T00:07:52.275Z,970.1
2017-03-15T00:09:02.211Z,970.06
2017-03-15T00:10:12.459Z,970.09
2017-03-15T00:11:23.117Z,970.06
2017-03-15T00:12:33.369Z,970.06
2017-03-15T00:13:43.314Z,970.03
2017-03-15T00:14:52.952Z,970.03
2017-03-15T00:16:02.894Z,969.98
2017-03-15T00:17:13.154Z,969.91
2017-03-15T00:18:23.094Z,969.79
2017-03-15T00:19:33.352Z,969.84
2017-03-15T00:20:43.637Z,969.75
2017-03-15T00:21:53.900Z,969.66
2017-03-15T00:23:04.413Z,969.76
2017-03-15T00:24:14.362Z,969.78
2017-03-15T00:25:24.626Z,969.77
2017-03-15T00:26:34.883Z,969.8
2017-03-15T00:27:43.890Z,969.75
2017-03-15T00:28:54.162Z,969.79
2017-03-15T00:30:04.424Z,969.85
2017-03-15T00:31:14.064Z,969.83
2017-03-15T00:32:24.338Z,969.88
2017-03-15T00:33:33.972Z,969.86
2017-03-15T00:34:44.232Z,969.91
2017-03-15T00:35:54.498Z,969.89
2017-03-15T00:37:04.772Z,969.97
2017-03-15T00:38:14.715Z,970.05
2017-03-15T00:39:24.972Z,970
2017-03-15T00:40:34.918Z,970
2017-03-15T00:41:45.175Z,969.96
2017-03-15T00:42:55.153Z,970.07
2017-03-15T00:44:05.416Z,970.06
2017-03-15T00:45:15.679Z,970.01
2017-03-15T00:46:25.657Z,969.98
2017-03-15T00:47:35.605Z,969.97
2017-03-15T00:48:45.550Z,969.93
2017-03-15T00:49:55.187Z,969.99
2017-03-15T00:51:05.455Z,969.95
2017-03-15T00:52:15.716Z,969.96
2017-03-15T00:53:25.673Z,969.9
2017-03-15T00:54:35.940Z,969.84
2017-03-15T00:55:46.201Z,970.04
2017-03-15T00:56:56.463Z,969.83
2017-03-15T00:58:08.830Z,969.85
2017-03-15T00:59:19.088Z,969.75
2017-03-15T01:00:28.724Z,969.7
2017-03-15T01:01:38.995Z,969.69
2017-03-15T01:02:49.251Z,969.94
2017-03-15T01:03:59.199Z,969.68
2017-03-15T01:05:09.151Z,969.5
2017-03-15T01:06:19.415Z,969.55
2017-03-15T01:07:29.359Z,969.61
2017-03-15T01:08:38.991Z,969.65
2017-03-15T01:09:48.962Z,969.66
2017-03-15T01:10:58.915Z,969.61
2017-03-15T01:12:08.861Z,969.61
2017-03-15T01:13:19.122Z,969.66
2017-03-15T01:14:29.069Z,969.51
2017-03-15T01:15:39.337Z,969.49
2017-03-15T01:16:49.602Z,969.47
2017-03-15T01:17:59.573Z,969.41
2017-03-15T01:19:09.521Z,969.44
2017-03-15T01:20:19.469Z,969.46
2017-03-15T01:21:29.751Z,969.41
2017-03-15T01:22:39.069Z,969.42
2017-03-15T01:23:49.329Z,969.42
2017-03-15T01:24:58.963Z,969.38
2017-03-15T01:26:09.219Z,969.38
2017-03-15T01:27:21.474Z,969.49
2017-03-15T01:28:31.737Z,969.44
2017-03-15T01:29:42.000Z,969.39
2017-03-15T01:30:52.273Z,969.47
2017-03-15T01:32:02.532Z,969.55
2017-03-15T01:33:12.800Z,969.34
2017-03-15T01:34:23.058Z,969.41
2017-03-15T01:35:33.313Z,969.51
2017-03-15T01:36:43.575Z,969.47
2017-03-15T01:37:53.832Z,969.58
2017-03-15T01:39:03.483Z,969.66
2017-03-15T01:40:13.745Z,969.64
2017-03-15T01:41:24.011Z,969.56
2017-03-15T01:42:33.966Z,969.59
2017-03-15T01:43:44.226Z,969.57
2017-03-15T01:44:54.181Z,969.6
2017-03-15T01:46:04.442Z,969.61
2017-03-15T01:47:14.397Z,969.71
2017-03-15T01:48:24.357Z,969.58
2017-03-15T01:49:34.308Z,969.52
2017-03-15T01:50:44.568Z,969.7
2017-03-15T01:51:54.509Z,969.55
2017-03-15T01:53:04.778Z,969.52
2017-03-15T01:54:15.039Z,969.55
2017-03-15T01:55:24.979Z,969.53
2017-03-15T01:56:35.243Z,969.58
2017-03-15T01:57:45.195Z,969.58
2017-03-15T01:58:55.461Z,969.63
2017-03-15T02:00:05.732Z,969.55
2017-03-15T02:01:15.993Z,969.53
2017-03-15T02:02:26.254Z,969.42
2017-03-15T02:03:36.522Z,969.49
2017-03-15T02:04:46.788Z,969.43
2017-03-15T02:05:57.053Z,969.58
2017-03-15T02:07:07.313Z,969.56
2017-03-15T02:08:17.575Z,969.43
2017-03-15T02:09:27.832Z,969.69
2017-03-15T02:10:37.783Z,969.66
2017-03-15T02:11:47.738Z,969.55
2017-03-15T02:12:57.685Z,969.56
2017-03-15T02:14:07.947Z,969.58
2017-03-15T02:15:18.206Z,969.46
2017-03-15T02:16:28.470Z,969.37
2017-03-15T02:17:38.426Z,969.5
2017-03-15T02:18:48.684Z,969.64
2017-03-15T02:19:58.627Z,969.34
2017-03-15T02:21:08.577Z,969.43
2017-03-15T02:22:18.835Z,969.48
2017-03-15T02:23:29.094Z,969.4
2017-03-15T02:24:39.378Z,969.39
2017-03-15T02:25:49.328Z,969.69
2017-03-15T02:26:59.594Z,969.32
2017-03-15T02:28:09.541Z,969.42
2017-03-15T02:29:19.799Z,969.39
2017-03-15T02:30:30.074Z,969.33
2017-03-15T02:31:40.330Z,969.24
2017-03-15T02:32:50.276Z,969.45
2017-03-15T02:33:59.904Z,969.34
2017-03-15T02:35:10.160Z,969.44
2017-03-15T02:36:20.414Z,969.4
2017-03-15T02:37:30.673Z,969.43
2017-03-15T02:38:40.624Z,969.47
2017-03-15T02:39:50.896Z,969.54
2017-03-15T02:41:00.848Z,969.41
2017-03-15T02:42:11.111Z,969.47
2017-03-15T02:43:21.375Z,969.67
2017-03-15T02:44:31.645Z,969.46
2017-03-15T02:45:41.907Z,969.37
2017-03-15T02:46:51.870Z,969.52
2017-03-15T02:48:01.832Z,969.38
2017-03-15T02:49:12.094Z,969.54
2017-03-15T02:50:22.049Z,969.46
2017-03-15T02:51:31.999Z,969.55
2017-03-15T02:52:41.951Z,969.35
2017-03-15T02:53:52.220Z,969.43
2017-03-15T02:55:02.488Z,969.29
2017-03-15T02:56:12.754Z,969.27
2017-03-15T02:57:23.012Z,969.23
2017-03-15T02:58:32.959Z,969.3
2017-03-15T02:59:43.222Z,969.37
2017-03-15T03:00:53.170Z,969.58
2017-03-15T03:02:03.112Z,969.28
2017-03-15T03:03:12.739Z,969.29
2017-03-15T03:04:22.682Z,969.11
2017-03-15T03:05:32.632Z,969.4
2017-03-15T03:06:42.898Z,969.42
2017-03-15T03:07:53.170Z,969.23
2017-03-15T03:09:03.442Z,969.15
2017-03-15T03:10:13.705Z,969.29
2017-03-15T03:11:23.965Z,969.34
2017-03-15T03:12:33.914Z,969.42
2017-03-15T03:13:43.869Z,969.39
2017-03-15T03:14:53.821Z,969.67
2017-03-15T03:16:04.093Z,969.42
2017-03-15T03:17:14.057Z,969.26
2017-03-15T03:18:24.330Z,969.5
2017-03-15T03:19:34.592Z,969.42
2017-03-15T03:20:44.542Z,969.4
2017-03-15T03:21:54.803Z,969.28
2017-03-15T03:23:04.749Z,969.44
2017-03-15T03:24:15.005Z,969.49
2017-03-15T03:25:24.956Z,969.68
2017-03-15T03:26:35.220Z,969.72
2017-03-15T03:27:44.854Z,969.42
2017-03-15T03:28:55.112Z,969.62
2017-03-15T03:30:05.379Z,969.75
2017-03-15T03:31:15.652Z,970.56
2017-03-15T03:32:25.913Z,969.82
2017-03-15T03:33:36.175Z,969.54
2017-03-15T03:34:46.435Z,969.95
2017-03-15T03:35:56.380Z,969.91
2017-03-15T03:37:06.320Z,969.81
2017-03-15T03:38:16.267Z,969.86
2017-03-15T03:39:26.522Z,969.81
2017-03-15T03:40:36.780Z,970.11
2017-03-15T03:41:47.041Z,970.13
2017-03-15T03:42:57.314Z,970.29
2017-03-15T03:44:07.584Z,970.13
2017-03-15T03:45:17.846Z,970.02
2017-03-15T03:46:28.110Z,970.2
2017-03-15T03:47:38.054Z,970.15
2017-03-15T03:48:48.319Z,970.14
2017-03-15T03:49:57.949Z,970.12
2017-03-15T03:51:07.905Z,970.18
2017-03-15T03:52:18.162Z,970.2
2017-03-15T03:53:28.425Z,970.25
2017-03-15T03:54:38.692Z,970.15
2017-03-15T03:55:48.961Z,970.39
2017-03-15T03:56:59.225Z,970.28
2017-03-15T03:58:08.863Z,970.36
2017-03-15T03:59:19.129Z,970.73
2017-03-15T04:00:29.081Z,970.29
2017-03-15T04:01:39.041Z,970.35
2017-03-15T04:02:49.303Z,970.66
2017-03-15T04:03:59.566Z,970.68
2017-03-15T04:05:09.824Z,970.36
2017-03-15T04:06:19.770Z,970.31
2017-03-15T04:07:29.717Z,970.53
2017-03-15T04:08:39.999Z,970.49
2017-03-15T04:09:50.265Z,970.66
2017-03-15T04:11:00.515Z,970.42
2017-03-15T04:12:10.773Z,970.59
2017-03-15T04:13:20.413Z,970.51
2017-03-15T04:14:30.364Z,970.41
2017-03-15T04:15:40.307Z,970.5
2017-03-15T04:16:49.944Z,970.4
2017-03-15T04:17:59.898Z,970.53
2017-03-15T04:19:09.848Z,970.46
2017-03-15T04:20:20.115Z,970.42
2017-03-15T04:21:30.373Z,970.54
2017-03-15T04:22:40.638Z,970.55
2017-03-15T04:23:50.898Z,970.48
2017-03-15T04:25:01.182Z,970.73
2017-03-15T04:26:11.450Z,970.43
2017-03-15T04:27:21.712Z,970.57
2017-03-15T04:28:31.978Z,970.48
2017-03-15T04:29:42.233Z,970.49
2017-03-15T04:30:52.180Z,970.36
2017-03-15T04:32:02.442Z,970.43
2017-03-15T04:33:12.706Z,970.58
2017-03-15T04:34:22.338Z,970.55
2017-03-15T04:35:32.290Z,970.31
2017-03-15T04:36:42.556Z,970.28
2017-03-15T04:37:52.816Z,970.6
2017-03-15T04:39:02.765Z,970.4
2017-03-15T04:40:13.035Z,970.38
2017-03-15T04:41:22.986Z,970.38
2017-03-15T04:42:33.254Z,970.35
2017-03-15T04:43:43.519Z,970.51
2017-03-15T04:44:53.477Z,970.26
2017-03-15T04:46:03.742Z,970.21
2017-03-15T04:47:14.014Z,970.24
2017-03-15T04:48:24.275Z,970.34
2017-03-15T04:49:34.538Z,970.31
2017-03-15T04:50:44.804Z,970.51
2017-03-15T04:51:54.753Z,970.38
2017-03-15T04:53:05.013Z,970.4
2017-03-15T04:54:15.280Z,970.46
2017-03-15T04:55:25.549Z,970.45
2017-03-15T04:56:35.495Z,970.48
2017-03-15T04:57:45.447Z,970.61
2017-03-15T04:58:55.403Z,970.69
2017-03-15T05:00:05.658Z,970.69
2017-03-15T05:01:15.607Z,970.62
2017-03-15T05:02:25.863Z,970.56
2017-03-15T05:03:36.130Z,970.7
2017-03-15T05:04:46.393Z,971.03
2017-03-15T05:05:56.660Z,970.72
2017-03-15T05:07:06.932Z,970.73
2017-03-15T05:08:17.200Z,970.69
2017-03-15T05:09:27.152Z,970.67
2017-03-15T05:10:37.411Z,970.82
2017-03-15T05:11:47.354Z,970.63
2017-03-15T05:12:57.614Z,970.68
2017-03-15T05:14:07.878Z,970.74
2017-03-15T05:15:18.132Z,970.59
2017-03-15T05:16:28.396Z,970.61
2017-03-15T05:17:38.665Z,970.82
2017-03-15T05:18:48.611Z,970.85
2017-03-15T05:19:58.245Z,970.64
2017-03-15T05:21:08.189Z,970.89
2017-03-15T05:22:18.448Z,971.01
2017-03-15T05:23:28.717Z,970.89
2017-03-15T05:24:38.979Z,971
2017-03-15T05:25:48.929Z,970.87
2017-03-15T05:26:59.184Z,970.88
2017-03-15T05:28:09.133Z,970.99
2017-03-15T05:29:19.397Z,970.95
2017-03-15T05:30:29.661Z,971.08
2017-03-15T05:31:39.311Z,971.18
2017-03-15T05:32:49.567Z,970.97
2017-03-15T05:33:59.525Z,971.22
2017-03-15T05:35:09.790Z,971.23
2017-03-15T05:36:20.053Z,971.52
2017-03-15T05:37:30.305Z,971.17
2017-03-15T05:38:40.257Z,971.41
2017-03-15T05:39:50.202Z,971.2
2017-03-15T05:41:00.457Z,971.22
2017-03-15T05:42:10.402Z,971.2
2017-03-15T05:43:20.663Z,971.68
2017-03-15T05:44:30.921Z,971.44
2017-03-15T05:45:40.866Z,971.37
2017-03-15T05:46:50.806Z,971.51
2017-03-15T05:48:00.456Z,971.5
2017-03-15T05:49:10.406Z,971.7
2017-03-15T05:50:20.670Z,971.57
2017-03-15T05:51:30.944Z,971.9
2017-03-15T05:52:40.899Z,971.71
2017-03-15T05:53:50.853Z,971.5
2017-03-15T05:55:00.798Z,971.51
2017-03-15T05:56:11.078Z,971.61
2017-03-15T05:57:21.025Z,971.71
2017-03-15T05:58:31.285Z,971.77
2017-03-15T05:59:41.232Z,971.7
2017-03-15T06:00:51.494Z,971.57
2017-03-15T06:02:01.757Z,971.83
2017-03-15T06:03:11.698Z,971.62
2017-03-15T06:04:21.645Z,971.7
2017-03-15T06:05:31.910Z,971.77
2017-03-15T06:06:42.174Z,972.06
2017-03-15T06:07:52.456Z,971.73
2017-03-15T06:09:02.715Z,972.11
2017-03-15T06:10:12.982Z,971.96
2017-03-15T06:11:22.929Z,972.01
2017-03-15T06:12:32.875Z,972
2017-03-15T06:13:43.138Z,972.02
2017-03-15T06:14:53.413Z,972.07
2017-03-15T06:16:03.359Z,972.14
2017-03-15T06:17:13.633Z,972.05
2017-03-15T06:18:23.585Z,972.08
2017-03-15T06:19:33.840Z,972.4
2017-03-15T06:20:44.098Z,972.11
2017-03-15T06:21:54.360Z,972.15
2017-03-15T06:23:04.318Z,972.16
2017-03-15T06:24:14.270Z,972.09
2017-03-15T06:25:24.220Z,972.16
2017-03-15T06:26:34.482Z,972.56
2017-03-15T06:27:44.435Z,972.3
2017-03-15T06:28:54.388Z,972.13
2017-03-15T06:30:04.346Z,972.26
2017-03-15T06:31:14.297Z,972.2
2017-03-15T06:32:24.550Z,972.26
2017-03-15T06:33:34.814Z,972.37
2017-03-15T06:34:44.759Z,972.38
2017-03-15T06:35:55.027Z,972.44
2017-03-15T06:37:05.299Z,972.5
2017-03-15T06:38:15.563Z,972.45
2017-03-15T06:39:25.521Z,972.65
2017-03-15T06:40:35.156Z,973
2017-03-15T06:41:44.787Z,972.77
2017-03-15T06:42:55.051Z,972.99
2017-03-15T06:44:05.316Z,972.89
2017-03-15T06:45:14.963Z,972.8
2017-03-15T06:46:24.904Z,972.8
2017-03-15T06:47:34.848Z,972.82
2017-03-15T06:48:45.111Z,972.7
2017-03-15T06:49:55.075Z,972.81
2017-03-15T06:51:05.031Z,973.07
2017-03-15T06:52:15.292Z,973.32
2017-03-15T06:53:25.242Z,972.82
2017-03-15T06:54:35.190Z,973.1
2017-03-15T06:55:45.450Z,972.9
2017-03-15T06:56:55.093Z,972.84
2017-03-15T06:58:05.042Z,972.99
2017-03-15T06:59:15.304Z,973.13
2017-03-15T07:00:25.569Z,973.21
2017-03-15T07:01:35.835Z,972.92
2017-03-15T07:02:45.470Z,972.97
2017-03-15T07:03:55.421Z,973.05
2017-03-15T07:05:05.396Z,972.95
2017-03-15T07:06:15.661Z,973.02
2017-03-15T07:07:25.295Z,973
2017-03-15T07:08:35.252Z,973.11
2017-03-15T07:09:45.513Z,973.11
2017-03-15T07:10:55.468Z,973.04
2017-03-15T07:12:05.731Z,973.2
2017-03-15T07:13:15.988Z,973.48
2017-03-15T07:14:26.250Z,973.49
2017-03-15T07:15:36.203Z,973.44
2017-03-15T07:16:46.466Z,973.36
2017-03-15T07:17:55.792Z,973.58
2017-03-15T07:19:05.740Z,973.49
2017-03-15T07:20:16.002Z,973.69
2017-03-15T07:21:26.262Z,973.79
2017-03-15T07:22:36.212Z,973.69
2017-03-15T07:23:45.857Z,973.9
2017-03-15T07:24:56.139Z,973.84
2017-03-15T07:26:05.771Z,973.77
2017-03-15T07:27:15.715Z,973.69
2017-03-15T07:28:25.670Z,973.85
2017-03-15T07:29:35.942Z,973.75
2017-03-15T07:30:45.897Z,973.85
2017-03-15T07:31:56.160Z,973.99
2017-03-15T07:33:06.108Z,973.83
2017-03-15T07:34:16.363Z,973.88
2017-03-15T07:35:26.315Z,973.88
2017-03-15T07:36:36.268Z,973.84
2017-03-15T07:37:46.533Z,974.24
2017-03-15T07:38:56.485Z,973.96
2017-03-15T07:40:06.438Z,973.98
2017-03-15T07:41:16.698Z,974
2017-03-15T07:42:26.967Z,974.04
2017-03-15T07:43:36.910Z,974.01
2017-03-15T07:44:47.179Z,974.03
2017-03-15T07:45:57.439Z,974.09
2017-03-15T07:47:07.705Z,974.15
2017-03-15T07:48:17.975Z,974
2017-03-15T07:49:28.245Z,974.08
2017-03-15T07:50:38.507Z,973.97
2017-03-15T07:51:48.781Z,974.05
2017-03-15T07:52:59.049Z,974.18
2017-03-15T07:54:09.314Z,974.11
2017-03-15T07:55:19.264Z,974.09
2017-03-15T07:56:29.222Z,974.09
2017-03-15T07:57:39.532Z,974.25
2017-03-15T07:58:49.794Z,974.27
2017-03-15T07:59:59.748Z,974.42
2017-03-15T08:01:10.039Z,974.33
2017-03-15T08:02:19.992Z,974.42
2017-03-15T08:03:30.260Z,974.5
2017-03-15T08:04:40.521Z,974.58
2017-03-15T08:05:50.790Z,974.42
2017-03-15T08:07:01.057Z,974.49
2017-03-15T08:08:11.338Z,974.6
2017-03-15T08:09:21.357Z,974.57
2017-03-15T08:10:31.716Z,974.58
2017-03-15T08:11:41.977Z,974.62
2017-03-15T08:12:51.937Z,974.7
2017-03-15T08:14:02.199Z,974.57
2017-03-15T08:15:12.459Z,974.77
2017-03-15T08:16:22.731Z,974.6
2017-03-15T08:17:32.996Z,974.65
2017-03-15T08:18:43.267Z,974.71
2017-03-15T08:19:53.525Z,974.71
2017-03-15T08:21:03.476Z,974.81
2017-03-15T08:22:13.745Z,974.88
2017-03-15T08:23:23.379Z,974.92
2017-03-15T08:24:33.330Z,974.91
2017-03-15T08:25:43.275Z,974.91
2017-03-15T08:26:53.225Z,974.85
2017-03-15T08:28:03.173Z,974.93
2017-03-15T08:29:13.129Z,974.96
2017-03-15T08:30:23.395Z,974.89
2017-03-15T08:31:33.350Z,974.81
2017-03-15T08:32:43.291Z,974.88
2017-03-15T08:33:53.550Z,974.97
2017-03-15T08:35:03.498Z,974.87
2017-03-15T08:36:13.440Z,974.98
2017-03-15T08:37:23.695Z,975.05
2017-03-15T08:38:33.644Z,974.84
2017-03-15T08:39:43.592Z,974.82
2017-03-15T08:40:53.860Z,974.93
2017-03-15T08:42:03.497Z,974.84
2017-03-15T08:43:13.133Z,974.79
2017-03-15T08:44:23.081Z,974.84
2017-03-15T08:45:33.030Z,974.98
2017-03-15T08:46:43.319Z,974.98
2017-03-15T08:47:52.947Z,975.19
2017-03-15T08:49:03.207Z,975.33
2017-03-15T08:50:13.471Z,974.97
2017-03-15T08:51:23.796Z,975
2017-03-15T08:52:34.058Z,974.85
2017-03-15T08:53:44.010Z,974.8
2017-03-15T08:54:53.965Z,974.9
2017-03-15T08:56:03.605Z,974.88
2017-03-15T08:57:13.582Z,974.82
2017-03-15T08:58:23.842Z,974.67
2017-03-15T08:59:34.110Z,974.75
2017-03-15T09:00:44.058Z,974.89
2017-03-15T09:01:54.326Z,974.83
2017-03-15T09:03:04.587Z,974.93
2017-03-15T09:04:14.540Z,975
2017-03-15T09:05:24.170Z,975.06
2017-03-15T09:06:34.125Z,974.93
2017-03-15T09:07:44.077Z,974.87
2017-03-15T09:08:54.335Z,974.88
2017-03-15T09:10:04.316Z,975.05
2017-03-15T09:11:14.674Z,974.98
2017-03-15T09:12:24.934Z,974.97
2017-03-15T09:13:35.180Z,975.05
2017-03-15T09:14:45.695Z,975.15
2017-03-15T09:15:55.657Z,975.06
2017-03-15T09:17:05.915Z,974.96
2017-03-15T09:18:16.178Z,975.03
2017-03-15T09:19:26.437Z,975.21
2017-03-15T09:20:36.384Z,975.05
2017-03-15T09:21:46.020Z,975.11
2017-03-15T09:22:56.281Z,975.13
2017-03-15T09:24:06.554Z,975.16
2017-03-15T09:25:16.825Z,975.17
2017-03-15T09:26:26.771Z,975.28
2017-03-15T09:27:36.739Z,975.23
2017-03-15T09:28:47.004Z,975.32
2017-03-15T09:29:56.642Z,975.18
2017-03-15T09:31:06.590Z,975.26
2017-03-15T09:32:16.859Z,975.37
2017-03-15T09:33:26.824Z,975.39
2017-03-15T09:34:36.775Z,975.34
2017-03-15T09:35:47.066Z,975.39
2017-03-15T09:36:56.703Z,975.35
2017-03-15T09:38:06.341Z,975.38
2017-03-15T09:39:16.605Z,975.48
2017-03-15T09:40:26.878Z,975.32
2017-03-15T09:41:36.513Z,975.35
2017-03-15T09:42:46.145Z,975.2
2017-03-15T09:43:56.092Z,975.22
2017-03-15T09:45:05.728Z,975.16
2017-03-15T09:46:15.995Z,975.48
2017-03-15T09:47:26.255Z,975.22
2017-03-15T09:48:36.526Z,975.4
2017-03-15T09:49:46.158Z,975.32
2017-03-15T09:50:56.134Z,975.3
2017-03-15T09:52:06.085Z,975.23
2017-03-15T09:53:16.045Z,975.4
2017-03-15T09:54:26.302Z,975.45
2017-03-15T09:55:36.563Z,975.5
2017-03-15T09:56:46.192Z,975.51
2017-03-15T09:57:55.821Z,975.54
2017-03-15T09:59:06.080Z,975.54
2017-03-15T10:00:16.339Z,975.51
2017-03-15T10:01:26.626Z,975.72
2017-03-15T10:02:36.576Z,975.57
2017-03-15T10:03:46.524Z,975.63
2017-03-15T10:04:56.158Z,975.69
2017-03-15T10:06:06.417Z,975.75
2017-03-15T10:07:16.686Z,975.74
2017-03-15T10:08:26.941Z,975.9
2017-03-15T10:09:36.603Z,975.74
2017-03-15T10:10:46.554Z,975.64
2017-03-15T10:11:56.493Z,975.75
2017-03-15T10:13:08.450Z,975.81
2017-03-15T10:14:18.711Z,975.79
2017-03-15T10:15:28.662Z,976
2017-03-15T10:16:38.915Z,975.78
2017-03-15T10:17:49.182Z,975.98
2017-03-15T10:18:59.126Z,975.91
2017-03-15T10:20:09.118Z,976.15
2017-03-15T10:21:19.055Z,976.05
2017-03-15T10:22:29.318Z,975.92
2017-03-15T10:23:39.268Z,975.81
2017-03-15T10:24:49.212Z,975.79
2017-03-15T10:25:58.844Z,975.95
2017-03-15T10:27:08.785Z,975.75
2017-03-15T10:28:18.730Z,975.93
2017-03-15T10:29:28.679Z,975.92
2017-03-15T10:30:38.944Z,976.14
2017-03-15T10:31:48.894Z,975.8
2017-03-15T10:32:59.149Z,976.18
2017-03-15T10:34:09.398Z,976.14
2017-03-15T10:35:19.654Z,975.89
2017-03-15T10:36:29.906Z,975.89
2017-03-15T10:37:39.863Z,975.97
2017-03-15T10:39:59.427Z,976.52
2017-03-15T10:41:09.378Z,975.98
2017-03-15T10:42:19.321Z,975.92
2017-03-15T10:43:29.576Z,975.96
2017-03-15T10:44:39.518Z,975.89
2017-03-15T10:45:49.772Z,976.29
2017-03-15T10:46:59.410Z,976.36
2017-03-15T10:48:09.047Z,976.05
2017-03-15T10:49:19.312Z,976.24
2017-03-15T10:50:29.571Z,975.99
2017-03-15T10:51:39.823Z,976.15
2017-03-15T10:52:49.458Z,976.02
2017-03-15T10:53:59.415Z,975.97
2017-03-15T10:55:09.052Z,976.19
2017-03-15T10:56:19.313Z,976.26
2017-03-15T10:57:29.602Z,976.2
2017-03-15T10:58:39.897Z,976.31
2017-03-15T10:59:52.259Z,976.03
2017-03-15T11:01:01.891Z,976.03
2017-03-15T11:02:11.218Z,976.17
2017-03-15T11:03:21.156Z,976.08
2017-03-15T11:04:30.807Z,976.15
2017-03-15T11:05:40.750Z,976.22
2017-03-15T11:06:51.006Z,976.15
2017-03-15T11:08:00.952Z,976.24
2017-03-15T11:09:10.903Z,976.34
2017-03-15T11:10:21.165Z,976.27
2017-03-15T11:11:30.796Z,976.37
2017-03-15T11:12:40.743Z,976.48
2017-03-15T11:13:51.018Z,976.36
2017-03-15T11:15:00.977Z,976.53
2017-03-15T11:16:10.603Z,976.51
2017-03-15T11:17:20.859Z,976.56
2017-03-15T11:18:30.807Z,976.48
2017-03-15T11:19:40.440Z,976.47
2017-03-15T11:20:50.072Z,976.55
2017-03-15T11:21:59.709Z,976.58
2017-03-15T11:23:09.338Z,976.84
2017-03-15T11:24:19.605Z,976.52
2017-03-15T11:25:29.868Z,976.52
2017-03-15T11:26:39.817Z,976.58
2017-03-15T11:27:49.768Z,976.41
2017-03-15T11:29:00.035Z,976.5
2017-03-15T11:30:10.297Z,976.55
2017-03-15T11:31:20.559Z,977.04
2017-03-15T11:32:30.824Z,976.53
2017-03-15T11:33:41.092Z,976.74
2017-03-15T11:34:51.041Z,976.46
2017-03-15T11:36:00.382Z,976.91
2017-03-15T11:37:10.347Z,976.47
2017-03-15T11:38:20.625Z,976.8
2017-03-15T11:39:30.904Z,976.67
2017-03-15T11:40:41.167Z,977.14
2017-03-15T11:41:51.434Z,976.58
2017-03-15T11:43:01.387Z,976.68
2017-03-15T11:44:11.668Z,976.67
2017-03-15T11:45:21.929Z,976.78
2017-03-15T11:46:32.197Z,976.71
2017-03-15T11:47:42.153Z,976.76
2017-03-15T11:48:52.106Z,976.7
2017-03-15T11:50:02.380Z,976.81
2017-03-15T11:51:12.328Z,976.88
2017-03-15T11:52:22.274Z,976.76
2017-03-15T11:53:32.539Z,976.98
2017-03-15T11:54:42.807Z,976.76
2017-03-15T11:55:53.071Z,976.8
2017-03-15T11:57:03.021Z,976.89
2017-03-15T11:58:12.977Z,976.49
2017-03-15T11:59:22.929Z,976.74
2017-03-15T12:00:33.224Z,976.82
2017-03-15T12:01:43.495Z,976.84
2017-03-15T12:02:53.460Z,976.92
2017-03-15T12:04:03.415Z,976.79
2017-03-15T12:05:12.744Z,977
2017-03-15T12:06:22.390Z,977.07
2017-03-15T12:07:32.352Z,976.72
2017-03-15T12:08:42.309Z,977.09
2017-03-15T12:09:52.572Z,976.72
2017-03-15T12:11:02.213Z,977.54
2017-03-15T12:12:12.162Z,977.62
2017-03-15T12:13:22.426Z,978.06
2017-03-15T12:14:32.403Z,978.09
2017-03-15T12:15:42.669Z,978.2
2017-03-15T12:16:52.622Z,976.89
2017-03-15T12:18:02.262Z,978.33
2017-03-15T12:19:11.897Z,978.29
2017-03-15T12:20:22.164Z,978.64
2017-03-15T12:21:32.117Z,978.15
2017-03-15T12:22:42.379Z,977.15
2017-03-15T12:23:52.328Z,979.03
2017-03-15T12:25:01.982Z,978.87
2017-03-15T12:26:11.945Z,976.89
2017-03-15T12:27:22.219Z,978.81
2017-03-15T12:28:32.488Z,978.46
2017-03-15T12:29:42.439Z,977.16
2017-03-15T12:30:52.391Z,978.52
2017-03-15T12:32:02.344Z,977.83
2017-03-15T12:33:11.357Z,978.06
2017-03-15T12:34:21.313Z,978.22
2017-03-15T12:35:31.578Z,977.72
2017-03-15T12:36:41.843Z,978.02
2017-03-15T12:37:51.793Z,978.05
2017-03-15T12:39:01.739Z,977.17
2017-03-15T12:40:12.002Z,977.4
2017-03-15T12:41:21.639Z,977.96
2017-03-15T12:42:31.601Z,978.09
2017-03-15T12:43:41.867Z,977.91
2017-03-15T12:44:52.135Z,977.92
2017-03-15T12:46:02.088Z,977.23
2017-03-15T12:47:12.041Z,978.11
2017-03-15T12:48:22.002Z,978.15
2017-03-15T12:49:32.267Z,977.93
2017-03-15T12:50:41.914Z,977.92
2017-03-15T12:51:51.873Z,977.64
2017-03-15T12:53:01.824Z,977.69
2017-03-15T12:54:12.099Z,977.54
2017-03-15T12:55:22.367Z,977.63
2017-03-15T12:56:32.634Z,977.62
2017-03-15T12:57:42.911Z,977.69
2017-03-15T12:58:53.191Z,977.98
2017-03-15T13:00:03.150Z,978.08
2017-03-15T13:01:12.790Z,978.47
2017-03-15T13:02:22.433Z,978.85
2017-03-15T13:03:32.387Z,979.21
2017-03-15T13:04:42.038Z,979.06
2017-03-15T13:05:52.310Z,977.24
2017-03-15T13:07:02.264Z,977.71
2017-03-15T13:08:12.213Z,979.02
2017-03-15T13:09:22.168Z,978.71
2017-03-15T13:10:32.124Z,978.59
2017-03-15T13:11:42.124Z,978.45
2017-03-15T13:12:52.382Z,979.2
2017-03-15T13:14:02.337Z,978.52
2017-03-15T13:15:12.603Z,978.28
2017-03-15T13:16:22.557Z,977.88
2017-03-15T13:17:32.506Z,977.57
2017-03-15T13:18:42.167Z,977.92
2017-03-15T13:19:52.487Z,978.03
2017-03-15T13:21:02.129Z,978.2
2017-03-15T13:22:11.770Z,977.93
2017-03-15T13:23:22.038Z,977.58
2017-03-15T13:24:31.989Z,977.46
2017-03-15T13:25:41.625Z,977.53
2017-03-15T13:26:51.884Z,977.12
2017-03-15T13:28:01.830Z,977.3
2017-03-15T13:29:12.088Z,977.32
2017-03-15T13:30:22.034Z,977.5
2017-03-15T13:31:32.301Z,977.63
2017-03-15T13:32:42.565Z,977.81
2017-03-15T13:33:52.524Z,977.8
2017-03-15T13:35:02.476Z,977.55
2017-03-15T13:36:12.111Z,977.48
2017-03-15T13:37:21.752Z,977.45
2017-03-15T13:38:31.713Z,977.59
2017-03-15T13:39:41.978Z,977.65
2017-03-15T13:40:51.932Z,977.59
2017-03-15T13:42:01.880Z,977.37
2017-03-15T13:43:11.826Z,977.3
2017-03-15T13:44:21.778Z,977.56
2017-03-15T13:45:32.072Z,977.83
2017-03-15T13:46:42.334Z,977.89
2017-03-15T13:47:52.594Z,977.78
2017-03-15T13:49:02.857Z,977.74
2017-03-15T13:50:13.112Z,977.84
2017-03-15T13:51:23.065Z,977.52
2017-03-15T13:52:33.017Z,977.57
2017-03-15T13:53:43.289Z,977.96
2017-03-15T13:54:52.861Z,977.57
2017-03-15T13:56:02.812Z,977.45
2017-03-15T13:57:12.756Z,977.36
2017-03-15T13:58:22.699Z,977.19
2017-03-15T13:59:32.340Z,977.84
2017-03-15T14:00:42.644Z,979.05
2017-03-15T14:01:52.921Z,977.81
2017-03-15T14:03:02.866Z,978.32
2017-03-15T14:04:12.809Z,978.11
2017-03-15T14:05:23.070Z,977.9
2017-03-15T14:06:33.016Z,978.02
2017-03-15T14:07:42.653Z,977.81
2017-03-15T14:08:52.285Z,977
2017-03-15T14:10:02.553Z,977.06
2017-03-15T14:11:12.495Z,977.45
2017-03-15T14:12:22.751Z,977.62
2017-03-15T14:13:32.701Z,977.16
2017-03-15T14:14:42.965Z,977.55
2017-03-15T14:15:52.912Z,977.79
2017-03-15T14:17:02.855Z,977.78
2017-03-15T14:18:13.122Z,977.72
2017-03-15T14:19:23.391Z,977.68
2017-03-15T14:20:33.339Z,977.55
2017-03-15T14:21:43.293Z,977.73
2017-03-15T14:22:53.560Z,977.5
2017-03-15T14:24:03.505Z,977.53
2017-03-15T14:25:13.450Z,978.1
2017-03-15T14:26:23.711Z,977.64
2017-03-15T14:27:33.661Z,977.64
2017-03-15T14:28:43.919Z,977.6
2017-03-15T14:29:54.182Z,977.71
2017-03-15T14:31:04.443Z,977.48
2017-03-15T14:32:14.709Z,977.22
2017-03-15T14:33:24.964Z,977.18
2017-03-15T14:34:35.227Z,977.83
2017-03-15T14:35:45.172Z,977.87
2017-03-15T14:36:55.116Z,977.84
2017-03-15T14:38:05.375Z,977.98
2017-03-15T14:39:15.007Z,978.14